Terminal Aerodrome Forecast
Issued by NWS

Home | Current Version | Previous Version | Text Only | Print | Product List | Glossary On
Versions: 1 2 3 4 5 6 7 8 9 10 11 12 13 14 15 16 17
639
FTUS46 KLOX 301151
TAFBUR
TAF
KBUR 301151Z 3012/0112 12006KT P6SM -DZ OVC015
     FM301600 14008KT P6SM OVC025
     FM301800 16012KT P6SM SCT035
     FM010300 VRB03KT P6SM SCT040
     FM010900 VRB03KT P6SM OVC015=

USA.gov is the U.S. government's official web portal to all federal, state and local government web resources and services.